KCALAKEH4 Weather Reports


Display with metric or nautical units.
time (UTC)temp
F
wind
direction
speed
MPH
gust
MPH
rain 1hr
in
rain 24hr
in
rain mn
in
humidity
%
barometer
mb
20210517140104 56 274 5.0 14.0 0.00 0.00 0.00 68 1014.7
20210517134526 56 345 2.0 12.0 0.00 0.00 0.00 67 1014.6
20210517133030 55 210 3.0 14.0 0.00 0.00 0.00 68 1014.4
20210517131537 55 333 5.0 15.0 0.00 0.00 0.00 69 1014.1
20210517130010 55 250 4.0 16.0 0.00 0.00 0.00 69 1013.9
20210517124506 54 300 2.0 11.0 0.00 0.00 0.00 71 1014.2
20210517123027 54 245 2.0 7.0 0.00 0.00 0.00 70 1014.5
20210517121504 54 230 2.0 7.0 0.00 0.00 0.00 70 1014.7
20210517120002 54 254 2.0 9.0 0.00 0.00 0.00 69 1014.5
20210517114501 54 172 3.0 10.0 0.00 0.00 0.00 69 1014.4
20210517113205 54 351 3.0 8.0 0.00 0.00 0.00 70 1014.2
20210517111628 54 204 3.0 11.0 0.00 0.00 0.00 69 1014.2
20210517110130 55 216 3.0 11.0 0.00 0.00 0.00 68 1014.1
20210517104624 55 5 4.0 8.0 0.00 0.00 0.00 68 1014.0
20210517103220 54 325 3.0 11.0 0.00 0.00 0.00 69 1014.1
20210517101738 54 257 2.0 10.0 0.00 0.00 0.00 69 1014.2
20210517100147 54 355 4.0 9.0 0.00 0.00 0.00 69 1014.3
20210517094622 54 277 3.0 6.0 0.00 0.00 0.00 69 1014.3
20210517093118 54 125 2.0 7.0 0.00 0.00 0.00 69 1014.4
20210517091629 55 46 2.0 7.0 0.00 0.00 0.00 69 1014.5
20210517090058 54 237 2.0 10.0 0.00 0.00 0.00 69 1014.6
20210517084723 54 198 2.0 6.0 0.00 0.00 0.00 69 1014.5
20210517083111 54 203 2.0 10.0 0.00 0.00 0.00 69 1014.4
20210517081528 54 348 3.0 11.0 0.00 0.00 0.00 70 1014.5
20210517080033 54 360 4.0 12.0 0.00 0.00 0.00 70 1014.5
20210517074552 54 344 3.0 10.0 0.00 0.00 0.00 70 1014.5
20210517073037 54 5 4.0 10.0 0.00 0.00 0.00 70 1014.5
20210517071509 54 282 2.0 8.0 0.00 0.00 0.00 69 1014.5
20210517070010 54 360 3.0 11.0 0.00 0.00 0.00 69 1014.5
20210517064515 55 351 3.0 12.0 0.00 0.00 0.00 70 1014.7
20210517063014 55 355 4.0 10.0 0.00 0.00 0.00 70 1014.4
20210517061505 55 349 7.0 12.0 0.00 0.00 0.00 69 1014.1
20210517060016 56 355 5.0 11.0 0.00 0.00 0.00 67 1014.6
20210517054515 56 24 6.0 10.0 0.00 0.00 0.00 68 1014.6
20210517053006 56 355 5.0 10.0 0.00 0.00 0.00 69 1014.6
20210517051501 56 305 2.0 8.0 0.00 0.00 0.00 70 1014.7
20210517050149 55 21 3.0 7.0 0.00 0.00 0.00 71 1014.6
20210517044821 53 327 3.0 8.0 0.00 0.00 0.00 77 1014.5
20210517043146 51 159 0.0 0.0 0.00 0.00 0.00 81 1014.5
20210517041713 51 160 3.0 10.0 0.00 0.00 0.00 81 1014.7
20210517040215 54 178 1.0 7.0 0.00 0.00 0.00 73 1014.3
20210517034659 53 309 1.0 8.0 0.00 0.00 0.00 77 1014.0
20210517033135 51 232 0.0 3.0 0.00 0.00 0.00 82 1014.2
20210517031623 50 162 3.0 8.0 0.00 0.00 0.00 85 1014.0
20210517030436 50 137 6.0 17.0 0.00 0.00 0.00 85 1013.9
20210517024640 50 231 6.0 13.0 0.00 0.00 0.00 84 1013.7
20210517023132 51 146 4.0 7.0 0.00 0.00 0.00 80 1013.5
20210517021557 52 311 1.0 8.0 0.00 0.00 0.00 80 1013.3
20210517020159 52 209 3.0 15.0 0.00 0.00 0.00 79 1013.2
20210517014728 53 279 3.0 14.0 0.00 0.00 0.00 75 1013.3
20210517013121 55 281 5.0 13.0 0.00 0.00 0.00 72 1013.1
20210517011707 56 198 5.0 15.0 0.00 0.00 0.00 68 1013.2
20210517010125 57 323 3.0 11.0 0.00 0.00 0.00 68 1013.1
20210517004714 57 133 3.0 8.0 0.00 0.00 0.00 67 1013.1
20210517003201 57 82 4.0 8.0 0.00 0.00 0.00 68 1013.3
20210517001605 55 222 4.0 13.0 0.00 0.00 0.00 71 1013.2
20210517000126 55 248 5.0 13.0 0.00 0.00 0.00 72 1013.0
20210516234616 55 114 4.0 20.0 0.00 0.00 0.00 72 1013.1
20210516233122 54 143 6.0 15.0 0.00 0.00 0.00 73 1013.2
20210516231653 55 214 7.0 16.0 0.00 0.00 0.00 72 1013.0
20210516230032 54 233 6.0 23.0 0.00 0.00 0.00 72 1013.0
20210516224557 54 194 10.0 22.0 0.00 0.00 0.00 72 1013.2
20210516223128 56 169 6.0 16.0 0.00 0.00 0.00 70 1013.1
20210516221542 54 168 7.0 15.0 0.00 0.00 0.00 72 1013.3
20210516220054 54 213 8.0 22.0 0.00 0.00 0.00 73 1013.2
20210516214524 55 210 4.0 18.0 0.00 0.00 0.00 71 1013.0
20210516213058 54 182 6.0 15.0 0.00 0.00 0.00 71 1013.0
20210516211519 54 228 6.0 17.0 0.00 0.00 0.00 72 1013.0
20210516210030 53 194 6.0 20.0 0.00 0.00 0.00 74 1013.0
20210516204516 53 111 7.0 19.0 0.00 0.00 0.00 75 1013.0
20210516203017 53 165 7.0 18.0 0.00 0.00 0.00 74 1012.8
20210516201612 53 219 7.0 18.0 0.00 0.00 0.00 74 1012.7
20210516200022 53 240 4.0 20.0 0.00 0.00 0.00 73 1012.6
20210516193011 54 148 6.0 19.0 0.00 0.00 0.00 73 1012.6
20210516191534 53 120 6.0 15.0 0.00 0.00 0.00 74 1012.8
20210516190015 53 158 5.0 15.0 0.00 0.00 0.00 74 1012.7
20210516184507 54 246 5.0 15.0 0.00 0.00 0.00 73 1012.6
20210516183014 53 132 6.0 14.0 0.00 0.00 0.00 73 1012.7
20210516181813 53 107 5.0 16.0 0.00 0.00 0.00 74 1012.6
20210516180319 52 199 5.0 12.0 0.00 0.00 0.00 76 1012.6
20210516174635 51 184 6.0 17.0 0.00 0.00 0.00 81 1012.5
20210516173206 50 279 6.0 20.0 0.00 0.00 0.00 82 1012.5
20210516171633 50 250 4.0 13.0 0.00 0.00 0.00 83 1012.3
20210516170146 49 145 5.0 15.0 0.00 0.00 0.00 85 1012.3
20210516164622 47 141 5.0 15.0 0.00 0.00 0.00 89 1012.2
20210516163218 47 71 5.0 15.0 0.00 0.00 0.00 90 1012.2
20210516161616 46 267 5.0 12.0 0.00 0.00 0.00 91 1012.2
20210516160034 46 170 6.0 14.0 0.00 0.00 0.00 90 1011.9
20210516154601 46 261 5.0 14.0 0.00 0.00 0.00 91 1011.8
20210516153046 46 210 4.0 17.0 0.00 0.00 0.00 92 1011.7
20210516151555 45 246 3.0 14.0 0.00 0.00 0.00 93 1011.3
20210516150038 45 130 7.0 17.0 0.00 0.00 0.00 94 1011.2
20210516144537 45 217 7.0 17.0 0.00 0.00 0.00 94 1011.2
20210516143040 45 234 6.0 18.0 0.00 0.00 0.00 94 1011.2
20210516141613 45 321 5.0 15.0 0.00 0.00 0.00 94 1010.9